Portada
METAR-TAF:

METAR-TAF

Aeroports :

Nadi, Fiji

latitud: 17-45S, longitud: 177-27E, altitud: 13 m

Observació

L'informe es va fer fa 10 minuts, a les 10:00 UTC
Vent 7 kt del Sud/Sud-Est
Temperatura 23°C
Humitat 83%
Pressió 1015 hPa
Visibilitat 10 km o més
Escasses núvols a una alçada de 3000 ft

METAR: NFFN 051000Z 16007KT 9999 FEW030 23/20 Q1015 NOSIG

Hora: 22:10 (10:10 UTC)

Pronòstic

L'informe es va fer fa 4 hores i 48 minuts, a les 05:22 UTC
Pronòstic vàlid del 05 a les 06 UTC al 06 a les 06 UTC
Vent 6 kt del Sud-Est
Visibilitat 10 km o més
Núvols disperses a una alçada de 2800 ft
Evolucionant progressivament
l' 05 a les 22 UTC al 05 a les 24 UTC
Vent 10 kt del Oest/Nord-Oest
Evolucionant progressivament
l' 06 a les 04 UTC al 06 a les 04 UTC
Vent 7 kt del Sud-Est

TAF: NFFN 050522Z 0506/0606 13006KT 9999 SCT028 BECMG 0522/0524 30010KT BECMG 0604/0604 13007KT

Observacions i pronòstics meteorològics de més de 4000 aeroports (METAR i TAF).

Les estacions disponibles són els punts grocs i vermells al mapa.

Posi el ratolí al punt desitjat per veure el nom de l'estació.

Feu clic per veure les observacions i els pronòstics meteorològics.

Per canviar el mapa: feu clic els botons verds amb una creu de color negre per apropar; al botó verd amb un guió per allunyar la imatge; o en les fletxes verdes per a mapes adjacents.


METAR-TAF: